createdAt,value
2023-01-29T00:02:13.894Z,76.01
2023-01-29T00:04:41.601Z,76.10
2023-01-29T00:07:08.812Z,76.14
2023-01-29T00:09:36.414Z,75.88
2023-01-29T00:12:03.428Z,76.03
2023-01-29T00:14:30.155Z,76.09
2023-01-29T00:17:00.903Z,76.09
2023-01-29T00:19:28.131Z,76.07
2023-01-29T00:21:56.057Z,76.15
2023-01-29T00:24:23.176Z,76.35
2023-01-29T00:26:49.989Z,76.35
2023-01-29T00:29:17.575Z,75.96
2023-01-29T00:31:45.620Z,76.13
2023-01-29T00:34:12.556Z,75.85
2023-01-29T00:36:39.394Z,75.89
2023-01-29T00:39:12.250Z,75.87
2023-01-29T00:41:40.587Z,75.90
2023-01-29T00:44:07.359Z,75.89
2023-01-29T00:46:34.483Z,75.71
2023-01-29T00:49:01.659Z,75.87
2023-01-29T00:51:28.412Z,76.00
2023-01-29T00:53:56.730Z,76.25
2023-01-29T00:56:23.779Z,75.97
2023-01-29T00:58:53.652Z,76.00
2023-01-29T01:01:21.809Z,76.27
2023-01-29T01:03:49.022Z,75.96
2023-01-29T01:06:21.923Z,75.53
2023-01-29T01:08:48.800Z,75.75
2023-01-29T01:11:16.785Z,75.66
2023-01-29T01:13:43.597Z,75.65
2023-01-29T01:16:11.961Z,75.59
2023-01-29T01:18:41.835Z,75.11
2023-01-29T01:21:08.748Z,75.20
2023-01-29T01:23:36.605Z,75.29
2023-01-29T01:26:07.030Z,75.17
2023-01-29T01:28:33.776Z,75.23
2023-01-29T01:31:08.489Z,75.08
2023-01-29T01:33:35.475Z,75.62
2023-01-29T01:36:02.536Z,75.87
2023-01-29T01:38:29.250Z,75.89
2023-01-29T01:40:56.444Z,75.95
2023-01-29T01:43:24.187Z,76.17
2023-01-29T01:45:52.336Z,76.13
2023-01-29T01:48:24.402Z,76.47
2023-01-29T01:50:54.508Z,76.42
2023-01-29T01:53:26.842Z,76.46
2023-01-29T01:55:57.281Z,76.79
2023-01-29T01:58:32.377Z,76.62
2023-01-29T02:01:02.687Z,76.69
2023-01-29T02:03:35.728Z,76.69
2023-01-29T02:06:02.450Z,76.73
2023-01-29T02:08:43.899Z,76.61
2023-01-29T02:11:10.862Z,76.78
2023-01-29T02:13:37.632Z,77.05
2023-01-29T02:16:05.167Z,76.97
2023-01-29T02:18:32.557Z,76.72
2023-01-29T02:21:40.095Z,76.74
2023-01-29T02:24:44.582Z,76.74
2023-01-29T02:27:14.241Z,76.34
2023-01-29T02:29:59.206Z,76.41
2023-01-29T02:32:47.771Z,76.63
2023-01-29T02:35:28.630Z,76.62
2023-01-29T02:38:29.291Z,76.68
2023-01-29T02:41:08.264Z,76.63
2023-01-29T02:43:50.359Z,76.68
2023-01-29T02:46:28.044Z,76.50
2023-01-29T02:49:35.074Z,76.79
2023-01-29T02:52:17.453Z,76.65
2023-01-29T02:54:51.797Z,76.36
2023-01-29T02:57:23.230Z,76.48
2023-01-29T02:59:55.865Z,76.50
2023-01-29T03:02:27.142Z,76.15
2023-01-29T03:04:58.171Z,76.37
2023-01-29T03:07:31.901Z,76.44
2023-01-29T03:09:59.151Z,75.92
2023-01-29T03:12:26.816Z,76.16
2023-01-29T03:14:53.903Z,76.15
2023-01-29T03:17:21.888Z,75.91
2023-01-29T03:19:48.973Z,76.30
2023-01-29T03:22:18.682Z,76.07
2023-01-29T03:24:51.480Z,75.91
2023-01-29T03:27:18.928Z,75.85
2023-01-29T03:29:46.186Z,75.55
2023-01-29T03:32:13.001Z,75.43
2023-01-29T03:34:41.766Z,75.62
2023-01-29T03:37:47.996Z,75.67
2023-01-29T03:40:18.120Z,74.74
2023-01-29T03:43:01.986Z,74.93
2023-01-29T03:45:36.384Z,75.03
2023-01-29T03:48:15.564Z,74.80
2023-01-29T03:51:07.469Z,75.09
2023-01-29T03:54:19.872Z,74.47
2023-01-29T03:57:20.271Z,74.61
2023-01-29T04:00:13.913Z,74.80
2023-01-29T04:03:09.456Z,74.44
2023-01-29T04:05:54.715Z,75.00
2023-01-29T04:08:25.881Z,74.66
2023-01-29T04:10:52.970Z,75.10
2023-01-29T04:13:20.184Z,75.10
2023-01-29T04:15:49.373Z,74.95
2023-01-29T04:18:19.047Z,75.30
2023-01-29T04:20:45.781Z,75.26
2023-01-29T04:23:24.605Z,74.63
2023-01-29T04:25:56.597Z,75.33
2023-01-29T04:28:45.705Z,75.27
2023-01-29T04:31:57.231Z,75.03
2023-01-29T04:34:50.368Z,75.77
2023-01-29T04:37:22.804Z,75.89
2023-01-29T04:40:10.489Z,76.25
2023-01-29T04:42:43.687Z,75.98
2023-01-29T04:45:18.678Z,76.01
2023-01-29T04:48:04.350Z,76.33
2023-01-29T04:50:41.573Z,76.16
2023-01-29T04:53:42.278Z,76.40
2023-01-29T04:59:39.331Z,76.12
2023-01-29T05:02:09.537Z,76.20
2023-01-29T05:04:36.630Z,76.20
2023-01-29T05:07:04.756Z,75.46
2023-01-29T05:09:32.082Z,75.98
2023-01-29T05:11:58.900Z,75.81
2023-01-29T05:14:28.825Z,75.71
2023-01-29T05:16:55.678Z,76.06
2023-01-29T05:19:22.457Z,75.70
2023-01-29T05:21:50.307Z,75.64
2023-01-29T05:24:27.216Z,75.47
2023-01-29T05:26:54.623Z,75.59
2023-01-29T05:29:22.712Z,75.89
2023-01-29T05:35:12.644Z,75.09
2023-01-29T05:37:40.604Z,75.08
2023-01-29T05:40:08.258Z,75.32
2023-01-29T05:42:35.287Z,75.40
2023-01-29T05:45:02.332Z,75.59
2023-01-29T05:47:29.472Z,75.62
2023-01-29T05:49:56.574Z,75.18
2023-01-29T05:52:26.435Z,75.25
2023-01-29T05:54:53.363Z,75.38
2023-01-29T05:57:20.336Z,75.02
2023-01-29T05:59:47.414Z,75.22
2023-01-29T06:02:14.572Z,74.98
2023-01-29T06:04:42.049Z,75.13
2023-01-29T06:07:08.824Z,74.71
2023-01-29T06:09:36.297Z,74.99
2023-01-29T06:12:03.759Z,75.30
2023-01-29T06:14:30.464Z,74.64
2023-01-29T06:16:57.250Z,74.35
2023-01-29T06:19:23.915Z,74.57
2023-01-29T06:21:50.691Z,74.80
2023-01-29T06:24:17.592Z,73.89
2023-01-29T06:26:44.748Z,73.29
2023-01-29T06:29:11.916Z,73.98
2023-01-29T06:31:41.951Z,74.13
2023-01-29T06:34:08.786Z,74.37
2023-01-29T06:36:35.819Z,74.10
2023-01-29T06:39:02.794Z,74.02
2023-01-29T06:41:29.821Z,73.53
2023-01-29T06:43:57.533Z,73.41
2023-01-29T06:46:24.888Z,73.47
2023-01-29T06:48:52.834Z,74.00
2023-01-29T06:51:19.943Z,73.99
2023-01-29T06:53:47.048Z,74.17
2023-01-29T06:56:15.118Z,74.22
2023-01-29T06:58:44.131Z,73.93
2023-01-29T07:01:29.221Z,73.84
2023-01-29T07:04:01.116Z,73.81
2023-01-29T07:06:28.991Z,73.90
2023-01-29T07:08:56.090Z,74.11
2023-01-29T07:11:22.817Z,73.90
2023-01-29T07:13:50.360Z,73.54
2023-01-29T07:16:17.560Z,73.61
2023-01-29T07:18:48.621Z,73.57
2023-01-29T07:21:16.608Z,73.05
2023-01-29T07:23:44.197Z,73.01
2023-01-29T07:26:11.347Z,73.09
2023-01-29T07:28:38.800Z,72.11
2023-01-29T07:31:05.829Z,71.62
2023-01-29T07:33:33.166Z,71.94
2023-01-29T07:35:59.878Z,71.40
2023-01-29T07:38:31.813Z,70.82
2023-01-29T07:40:59.050Z,71.24
2023-01-29T07:43:26.307Z,70.58
2023-01-29T07:45:53.443Z,70.74
2023-01-29T07:48:20.357Z,71.53
2023-01-29T07:50:55.740Z,71.69
2023-01-29T07:53:22.945Z,71.95
2023-01-29T07:55:50.044Z,72.54
2023-01-29T07:58:17.185Z,71.89
2023-01-29T08:00:44.339Z,70.53
2023-01-29T08:03:13.294Z,71.09
2023-01-29T08:05:40.439Z,71.24
2023-01-29T08:08:08.088Z,70.94
2023-01-29T08:10:40.465Z,71.35
2023-01-29T08:13:07.271Z,69.57
2023-01-29T08:15:34.361Z,69.89
2023-01-29T08:18:03.871Z,70.48
2023-01-29T08:20:31.033Z,70.00
2023-01-29T08:23:05.318Z,69.05
2023-01-29T08:25:38.960Z,69.10
2023-01-29T08:28:06.063Z,68.56
2023-01-29T08:30:33.841Z,69.11
2023-01-29T08:33:00.833Z,66.60
2023-01-29T08:35:27.776Z,67.11
2023-01-29T08:37:55.688Z,68.61
2023-01-29T08:40:23.226Z,68.61
2023-01-29T08:42:50.301Z,67.42
2023-01-29T08:45:17.860Z,64.78
2023-01-29T08:47:48.161Z,65.14
2023-01-29T08:50:16.199Z,65.30
2023-01-29T08:52:44.748Z,65.47
2023-01-29T08:55:14.784Z,65.74
2023-01-29T08:57:41.868Z,65.61
2023-01-29T09:00:10.001Z,66.91
2023-01-29T09:02:37.365Z,66.96
2023-01-29T09:05:04.930Z,64.77
2023-01-29T09:07:32.334Z,64.53
2023-01-29T09:09:59.433Z,63.96
2023-01-29T09:12:26.315Z,63.75
2023-01-29T09:14:53.429Z,62.57
2023-01-29T09:17:20.680Z,65.69
2023-01-29T09:19:47.420Z,63.97
2023-01-29T09:22:14.129Z,63.88
2023-01-29T09:24:41.472Z,61.21
2023-01-29T09:27:08.249Z,60.76
2023-01-29T09:29:36.001Z,58.92
2023-01-29T09:32:04.347Z,60.65
2023-01-29T09:34:31.055Z,61.67
2023-01-29T09:36:58.535Z,60.80
2023-01-29T09:39:25.295Z,57.96
2023-01-29T09:41:59.473Z,56.20
2023-01-29T09:44:53.913Z,55.01
2023-01-29T09:47:22.741Z,52.80
2023-01-29T09:50:10.868Z,54.34
2023-01-29T09:56:21.483Z,52.26
2023-01-29T09:58:48.610Z,52.86
2023-01-29T10:01:48.101Z,54.47
2023-01-29T10:04:51.506Z,55.61
2023-01-29T10:07:43.336Z,59.75
2023-01-29T10:10:23.941Z,60.55
2023-01-29T10:12:50.692Z,62.52
2023-01-29T10:15:38.770Z,62.71
2023-01-29T10:18:29.131Z,60.31
2023-01-29T10:24:07.481Z,63.47
2023-01-29T10:26:34.445Z,62.99
2023-01-29T10:29:01.240Z,62.37
2023-01-29T10:31:33.173Z,64.81
2023-01-29T10:34:24.001Z,64.71
2023-01-29T10:36:50.780Z,62.37
2023-01-29T10:39:25.549Z,63.15
2023-01-29T10:42:16.128Z,62.71
2023-01-29T10:45:10.640Z,63.55
2023-01-29T10:48:14.503Z,65.82
2023-01-29T10:51:02.013Z,64.91
2023-01-29T10:53:41.819Z,66.12
2023-01-29T10:56:28.902Z,65.77
2023-01-29T10:59:03.358Z,65.62
2023-01-29T11:01:30.496Z,64.65
2023-01-29T11:03:59.632Z,60.67
2023-01-29T11:06:44.849Z,59.31
2023-01-29T11:09:42.958Z,62.08
2023-01-29T11:12:30.863Z,61.33
2023-01-29T11:15:06.843Z,60.85
2023-01-29T11:17:34.465Z,61.34
2023-01-29T11:20:01.530Z,60.93
2023-01-29T11:22:29.884Z,59.56
2023-01-29T11:25:19.025Z,59.29
2023-01-29T11:27:49.369Z,58.21
2023-01-29T11:30:32.392Z,56.83
2023-01-29T11:33:10.076Z,55.33
2023-01-29T11:35:39.770Z,55.09
2023-01-29T11:38:28.751Z,55.33
2023-01-29T11:41:06.552Z,54.54
2023-01-29T11:43:34.283Z,54.02
2023-01-29T11:46:11.680Z,54.75
2023-01-29T11:48:46.544Z,53.69
2023-01-29T11:51:21.508Z,53.09
2023-01-29T11:54:10.236Z,54.29
2023-01-29T11:56:43.216Z,53.21
2023-01-29T11:59:42.875Z,52.13
2023-01-29T12:02:54.209Z,50.39
2023-01-29T12:05:25.133Z,51.33
2023-01-29T12:07:54.013Z,52.48
2023-01-29T12:10:48.400Z,50.91
2023-01-29T12:13:25.826Z,50.50
2023-01-29T12:16:09.181Z,50.76
2023-01-29T12:18:38.362Z,52.85
2023-01-29T12:21:33.663Z,51.36
2023-01-29T12:24:49.224Z,50.07
2023-01-29T12:27:36.930Z,51.04
2023-01-29T12:30:44.099Z,51.03
2023-01-29T12:33:51.356Z,50.43
2023-01-29T12:36:24.073Z,49.96
2023-01-29T12:38:50.777Z,50.76
2023-01-29T12:41:57.327Z,50.00
2023-01-29T12:44:48.995Z,50.22
2023-01-29T12:47:27.143Z,50.78
2023-01-29T12:49:57.096Z,49.01
2023-01-29T12:52:46.311Z,48.48
2023-01-29T12:55:16.405Z,49.13
2023-01-29T12:58:14.971Z,49.52
2023-01-29T13:00:46.237Z,50.15
2023-01-29T13:03:39.702Z,50.28
2023-01-29T13:06:08.276Z,48.64
2023-01-29T13:08:54.161Z,48.39
2023-01-29T13:11:30.687Z,49.03
2023-01-29T13:14:08.992Z,48.20
2023-01-29T13:16:47.495Z,50.44
2023-01-29T13:19:38.817Z,51.87
2023-01-29T13:22:20.309Z,49.81
2023-01-29T13:25:02.286Z,48.38
2023-01-29T13:27:31.613Z,48.92
2023-01-29T13:30:03.650Z,47.76
2023-01-29T13:32:31.850Z,47.23
2023-01-29T13:35:22.075Z,47.17
2023-01-29T13:37:50.875Z,45.89
2023-01-29T13:40:25.732Z,46.64
2023-01-29T13:42:57.280Z,48.26
2023-01-29T13:45:36.158Z,49.04
2023-01-29T13:48:26.280Z,47.82
2023-01-29T13:50:53.895Z,49.01
2023-01-29T13:53:23.381Z,48.96
2023-01-29T13:55:50.895Z,47.34
2023-01-29T13:58:38.577Z,47.13
2023-01-29T14:01:05.748Z,46.95
2023-01-29T14:04:03.853Z,45.85
2023-01-29T14:06:40.115Z,46.71
2023-01-29T14:09:37.955Z,45.72
2023-01-29T14:12:36.425Z,46.84
2023-01-29T14:15:16.865Z,48.56
2023-01-29T14:18:05.670Z,47.86
2023-01-29T14:20:48.726Z,47.44
2023-01-29T14:23:23.692Z,48.03
2023-01-29T14:25:50.485Z,50.51
2023-01-29T14:28:43.227Z,53.10
2023-01-29T14:31:10.472Z,56.82
2023-01-29T14:33:39.867Z,56.96
2023-01-29T14:36:12.696Z,58.99
2023-01-29T14:38:40.394Z,59.13
2023-01-29T14:41:28.771Z,60.78
2023-01-29T14:44:40.360Z,61.11
2023-01-29T14:47:17.797Z,62.01
2023-01-29T14:49:57.894Z,62.44
2023-01-29T14:52:37.471Z,62.52
2023-01-29T14:55:08.038Z,64.00
2023-01-29T14:57:35.100Z,63.01
2023-01-29T15:00:18.528Z,64.09
2023-01-29T15:02:45.698Z,63.82
2023-01-29T15:05:17.626Z,62.68
2023-01-29T15:07:57.245Z,63.43
2023-01-29T15:10:33.488Z,62.48
2023-01-29T15:13:22.788Z,62.71
2023-01-29T15:15:57.201Z,64.39
2023-01-29T15:18:34.777Z,64.07
2023-01-29T15:21:04.666Z,63.82
2023-01-29T15:23:42.801Z,63.35
2023-01-29T15:26:17.488Z,64.45
2023-01-29T15:28:47.251Z,62.57
2023-01-29T15:31:18.676Z,59.55
2023-01-29T15:33:45.976Z,57.36
2023-01-29T15:36:18.937Z,56.52
2023-01-29T15:38:45.689Z,58.56
2023-01-29T15:41:20.160Z,58.59
2023-01-29T15:43:48.408Z,57.90
2023-01-29T15:46:27.120Z,57.46
2023-01-29T15:48:54.616Z,56.38
2023-01-29T15:51:24.055Z,53.37
2023-01-29T15:54:01.878Z,54.84
2023-01-29T15:56:37.400Z,57.57
2023-01-29T15:59:09.389Z,55.94
2023-01-29T16:01:36.665Z,58.32
2023-01-29T16:04:03.482Z,58.52
2023-01-29T16:06:35.962Z,58.36
2023-01-29T16:09:03.352Z,57.48
2023-01-29T16:11:30.327Z,56.37
2023-01-29T16:13:57.012Z,58.26
2023-01-29T16:16:24.428Z,58.42
2023-01-29T16:18:59.532Z,60.11
2023-01-29T16:21:35.218Z,60.73
2023-01-29T16:24:01.773Z,60.59
2023-01-29T16:26:30.614Z,63.10
2023-01-29T16:28:57.379Z,63.74
2023-01-29T16:31:27.098Z,65.65
2023-01-29T16:33:54.432Z,66.52
2023-01-29T16:36:23.103Z,66.82
2023-01-29T16:39:11.094Z,66.82
2023-01-29T16:41:37.812Z,67.18
2023-01-29T16:44:16.771Z,67.36
2023-01-29T16:46:47.568Z,66.74
2023-01-29T16:49:28.999Z,67.23
2023-01-29T16:51:55.725Z,65.66
2023-01-29T16:54:25.890Z,63.59
2023-01-29T16:56:54.396Z,62.87
2023-01-29T16:59:23.636Z,62.10
2023-01-29T17:01:50.871Z,62.04
2023-01-29T17:04:18.055Z,60.91
2023-01-29T17:06:46.525Z,60.05
2023-01-29T17:09:28.538Z,59.29
2023-01-29T17:11:59.540Z,60.24
2023-01-29T17:14:26.584Z,59.40
2023-01-29T17:17:03.814Z,58.30
2023-01-29T17:19:30.675Z,59.53
2023-01-29T17:21:57.506Z,58.37
2023-01-29T17:24:24.276Z,59.31
2023-01-29T17:26:51.108Z,60.92
2023-01-29T17:29:21.079Z,64.75
2023-01-29T17:31:47.790Z,66.84
2023-01-29T17:34:14.893Z,68.28
2023-01-29T17:36:45.016Z,69.26
2023-01-29T17:39:23.608Z,69.27
2023-01-29T17:41:51.512Z,69.78
2023-01-29T17:44:20.358Z,69.87
2023-01-29T17:46:48.399Z,70.41
2023-01-29T17:49:27.821Z,71.08
2023-01-29T17:52:01.806Z,71.21
2023-01-29T17:54:31.511Z,71.77
2023-01-29T17:56:59.775Z,71.83
2023-01-29T17:59:31.361Z,72.13
2023-01-29T18:01:58.681Z,72.72
2023-01-29T18:04:28.524Z,72.97
2023-01-29T18:06:55.364Z,73.42
2023-01-29T18:09:22.523Z,73.87
2023-01-29T18:11:49.776Z,74.22
2023-01-29T18:14:16.634Z,74.10
2023-01-29T18:16:43.697Z,74.41
2023-01-29T18:19:13.156Z,74.54
2023-01-29T18:21:50.763Z,74.95
2023-01-29T18:24:18.373Z,75.01
2023-01-29T18:26:45.594Z,74.50
2023-01-29T18:29:13.844Z,74.73
2023-01-29T18:31:43.386Z,74.51
2023-01-29T18:34:10.196Z,74.80
2023-01-29T18:36:37.793Z,75.15
2023-01-29T18:39:05.026Z,75.30
2023-01-29T18:41:32.495Z,75.24
2023-01-29T18:43:59.780Z,75.43
2023-01-29T18:46:27.123Z,75.56
2023-01-29T18:48:54.187Z,75.80
2023-01-29T18:51:20.886Z,76.00
2023-01-29T18:53:52.487Z,76.29
2023-01-29T18:56:20.246Z,76.38
2023-01-29T18:58:52.129Z,76.55
2023-01-29T19:01:22.191Z,76.67
2023-01-29T19:03:49.018Z,76.89
2023-01-29T19:06:15.912Z,76.75
2023-01-29T19:08:43.665Z,77.02
2023-01-29T19:11:11.709Z,77.19
2023-01-29T19:13:38.545Z,77.41
2023-01-29T19:16:16.427Z,77.80
2023-01-29T19:18:44.026Z,77.70
2023-01-29T19:21:14.873Z,77.93
2023-01-29T19:23:42.300Z,77.96
2023-01-29T19:26:09.614Z,78.17
2023-01-29T19:28:39.309Z,78.09
2023-01-29T19:31:06.094Z,78.44
2023-01-29T19:33:32.858Z,78.09
2023-01-29T19:35:59.770Z,78.24
2023-01-29T19:38:26.739Z,78.19
2023-01-29T19:40:53.482Z,78.29
2023-01-29T19:43:20.564Z,78.61
2023-01-29T19:45:56.545Z,78.72
2023-01-29T19:48:23.362Z,78.78
2023-01-29T19:51:00.854Z,78.72
2023-01-29T19:53:28.662Z,78.41
2023-01-29T19:56:03.295Z,78.15
2023-01-29T19:58:30.286Z,78.40
2023-01-29T20:01:02.233Z,78.05
2023-01-29T20:03:29.064Z,78.05
2023-01-29T20:05:56.584Z,77.95
2023-01-29T20:08:23.643Z,77.88
2023-01-29T20:10:50.462Z,77.84
2023-01-29T20:13:17.256Z,77.84
2023-01-29T20:15:47.696Z,78.16
2023-01-29T20:18:14.421Z,78.48
2023-01-29T20:20:46.347Z,78.70
2023-01-29T20:23:25.055Z,78.62
2023-01-29T20:26:02.470Z,78.69
2023-01-29T20:28:29.377Z,78.73
2023-01-29T20:30:56.147Z,78.48
2023-01-29T20:33:23.454Z,78.42
2023-01-29T20:35:58.012Z,78.44
2023-01-29T20:38:26.488Z,78.40
2023-01-29T20:41:13.713Z,78.95
2023-01-29T20:43:40.635Z,78.72
2023-01-29T20:46:07.601Z,78.86
2023-01-29T20:48:34.458Z,78.62
2023-01-29T20:51:09.270Z,78.79
2023-01-29T20:53:36.350Z,78.91
2023-01-29T20:56:04.621Z,78.68
2023-01-29T20:58:31.761Z,78.67
2023-01-29T21:00:58.535Z,77.99
2023-01-29T21:03:25.807Z,78.05
2023-01-29T21:05:52.637Z,78.23
2023-01-29T21:08:19.327Z,78.31
2023-01-29T21:10:47.709Z,78.61
2023-01-29T21:13:14.523Z,79.00
2023-01-29T21:15:43.502Z,79.53
2023-01-29T21:18:13.157Z,79.85
2023-01-29T21:20:40.058Z,79.42
2023-01-29T21:23:25.859Z,79.71
2023-01-29T21:25:52.618Z,79.39
2023-01-29T21:28:19.360Z,79.38
2023-01-29T21:30:46.523Z,79.54
2023-01-29T21:33:13.386Z,79.91
2023-01-29T21:35:40.181Z,80.11
2023-01-29T21:38:07.347Z,80.43
2023-01-29T21:40:36.942Z,80.10
2023-01-29T21:43:04.757Z,80.26
2023-01-29T21:45:31.467Z,80.39
2023-01-29T21:47:58.238Z,79.94
2023-01-29T21:50:25.017Z,80.06
2023-01-29T21:52:51.830Z,80.22
2023-01-29T21:55:18.685Z,80.28
2023-01-29T21:57:46.453Z,79.99
2023-01-29T22:00:13.646Z,80.29
2023-01-29T22:02:40.414Z,80.57
2023-01-29T22:05:18.134Z,80.83
2023-01-29T22:07:47.099Z,81.04
2023-01-29T22:10:14.166Z,81.16
2023-01-29T22:12:42.697Z,81.14
2023-01-29T22:15:09.960Z,81.40
2023-01-29T22:17:36.653Z,81.52
2023-01-29T22:20:03.512Z,81.68
2023-01-29T22:22:30.272Z,81.85
2023-01-29T22:25:02.239Z,81.84
2023-01-29T22:27:28.941Z,81.75
2023-01-29T22:29:55.646Z,81.78
2023-01-29T22:32:22.807Z,81.60
2023-01-29T22:34:49.832Z,81.35
2023-01-29T22:37:16.655Z,81.25
2023-01-29T22:39:45.055Z,81.37
2023-01-29T22:42:11.797Z,81.08
2023-01-29T22:44:38.637Z,81.06
2023-01-29T22:47:05.761Z,81.23
2023-01-29T22:49:32.492Z,81.29
2023-01-29T22:51:59.632Z,80.99
2023-01-29T22:54:27.278Z,80.84
2023-01-29T22:56:54.011Z,80.83
2023-01-29T22:59:20.856Z,80.67
2023-01-29T23:01:47.705Z,80.42
2023-01-29T23:04:14.486Z,80.08
2023-01-29T23:06:41.333Z,79.13
2023-01-29T23:09:08.090Z,78.37
2023-01-29T23:11:34.773Z,78.30
2023-01-29T23:14:01.481Z,78.25
2023-01-29T23:16:28.460Z,79.29
2023-01-29T23:18:55.364Z,78.50
2023-01-29T23:21:24.881Z,78.67
2023-01-29T23:23:51.752Z,79.46
2023-01-29T23:26:21.261Z,79.68
2023-01-29T23:28:48.032Z,79.98
2023-01-29T23:31:15.027Z,79.70
2023-01-29T23:33:41.844Z,78.27
2023-01-29T23:36:08.651Z,77.56
2023-01-29T23:38:35.664Z,78.10
2023-01-29T23:41:02.369Z,79.21
2023-01-29T23:43:29.124Z,79.08
2023-01-29T23:45:55.925Z,79.38
2023-01-29T23:48:23.533Z,79.05
2023-01-29T23:50:50.470Z,78.35
2023-01-29T23:53:23.391Z,77.71
2023-01-29T23:56:00.925Z,77.21
2023-01-29T23:58:27.944Z,77.29
